Glen, South Dakota
Current Conditions -  °F | °C
As of 12:53 PM on Tuesday 21 Oct 2014 (Local Time) from KABR Reporting Station
Clear Clear  
Wind Chill: 72°   Ceiling: Unl
Heat Index: 72°   Visibility: 10mi
Dew Point: 43°   Wind: 17mph
Humidity: 35%   Direction: 180°S
Pressure: 29.89"   Gusts: 26mph
Location:  45.4011°N, 99.3273°W
Report Text: KABR 211753Z AUTO 18015G23KT 10SM CLR 22/06 A2989 RMK AO2 SLP121 T02220061 10222 20094 58015
Loading
Personal Weather Stations






























Interactive Weather Map
Tropical Storm Tracking
New forecast layout! Learn more

10-Day Weather Forecast

Advertisements
Track Severe Weather on mobile